Time;durP1;ratioP1;P1;durP2;ratioP2;P2;SDS_P1;SDS_P2;PMS_P1;PMS_P2;Temp;Humidity;BMP_temperature;BMP_pressure;BME280_temperature;BME280_humidity;BME280_pressure;Samples;Min_cycle;Max_cycle;Signal;HPM_P1;HPM_P2
2021/04/03 00:00:21;;;;;;;;;;;;;;;20.52;45.38;101360.09;2106690;28;2085;-31
2021/04/03 00:01:22;;;;;;;;;;;;;;;20.53;45.40;101361.75;2107283;28;1877;-32
2021/04/03 00:02:23;;;;;;;;;;;;;;;20.52;45.50;101357.25;2106427;28;2050;-31
2021/04/03 00:03:23;;;;;;;;;;;;;;;20.51;45.34;101356.41;2106906;28;1944;-32
2021/04/03 00:04:24;;;;;;;;;;;;;;;20.52;45.51;101351.56;2108657;28;1168;-33
2021/04/03 00:05:25;;;;;;;;;;;;;;;20.51;45.35;101359.25;2102068;28;2109;-31
2021/04/03 00:06:26;;;;;;;;;;;;;;;20.52;45.45;101354.41;2104909;28;1245;-34
2021/04/03 00:07:26;;;;;;;;;;;;;;;20.52;45.30;101351.56;2108734;28;1602;-32
2021/04/03 00:08:27;;;;;;;;;;;;;;;20.52;45.49;101351.56;2107008;28;1961;-32
2021/04/03 00:09:28;;;;;;;;;;;;;;;20.51;45.31;101359.25;2102999;28;4089;-31
2021/04/03 00:10:29;;;;;;;;;;;;;;;20.51;45.33;101353.56;2108187;28;2187;-32
2021/04/03 00:11:30;;;;;;;;;;;;;;;20.51;45.42;101353.56;2106993;28;2079;-34
2021/04/03 00:12:30;;;;;;;;;;;;;;;20.51;45.31;101353.56;2109203;28;1983;-34
2021/04/03 00:13:31;;;;;;;;;;;;;;;20.52;45.44;101351.56;2110262;28;1827;-34
2021/04/03 00:14:33;;;;;;;;;;;;;;;20.51;45.35;101350.72;2102982;28;2375;-33
2021/04/03 00:15:33;;;;;;;;;;;;;;;20.52;45.29;101351.56;2106583;28;1547;-33
2021/04/03 00:16:34;;;;;;;;;;;;;;;20.52;45.29;101360.09;2111378;28;1944;-32
2021/04/03 00:17:35;;;;;;;;;;;;;;;20.52;45.30;101354.41;2108326;28;1968;-32
2021/04/03 00:18:36;;;;;;;;;;;;;;;20.52;45.28;101357.25;2111088;28;1190;-32
2021/04/03 00:19:36;;;;;;;;;;;;;;;20.52;45.37;101360.91;2107206;27;2150;-33
2021/04/03 00:20:37;;;;;;;;;;;;;;;20.52;45.30;101355.22;2103415;28;2123;-33
2021/04/03 00:21:38;;;;;;;;;;;;;;;20.52;45.30;101360.09;2105467;28;1147;-32
2021/04/03 00:22:39;;;;;;;;;;;;;;;20.52;45.40;101351.56;2106352;28;2015;-33
2021/04/03 00:23:40;;;;;;;;;;;;;;;20.52;45.30;101354.41;2105236;28;2463;-32
2021/04/03 00:24:41;;;;;;;;;;;;;;;20.52;45.24;101354.41;2104168;28;2156;-32
2021/04/03 00:25:42;;;;;;;;;;;;;;;20.52;45.31;101358.09;2110293;28;1243;-33
2021/04/03 00:26:43;;;;;;;;;;;;;;;20.53;45.10;101361.75;2111941;28;1969;-33
2021/04/03 00:27:44;;;;;;;;;;;;;;;20.53;45.32;101361.75;2102895;28;2635;-31
2021/04/03 00:28:44;;;;;;;;;;;;;;;20.53;45.34;101358.91;2104058;28;1992;-35
2021/04/03 00:29:45;;;;;;;;;;;;;;;20.52;45.21;101362.94;2103758;28;3045;-33
2021/04/03 00:30:46;;;;;;;;;;;;;;;20.52;45.18;101360.09;2109098;28;2551;-31
2021/04/03 00:31:47;;;;;;;;;;;;;;;20.53;45.28;101364.59;2108098;28;1938;-32
2021/04/03 00:32:47;;;;;;;;;;;;;;;20.52;45.31;101360.91;2106828;28;1888;-34
2021/04/03 00:33:48;;;;;;;;;;;;;;;20.52;45.14;101363.75;2106753;28;2097;-33
2021/04/03 00:34:49;;;;;;;;;;;;;;;20.52;45.18;101354.41;2108670;28;2074;-32
2021/04/03 00:35:49;;;;;;;;;;;;;;;20.52;45.13;101360.91;2106816;28;1905;-31
2021/04/03 00:36:50;;;;;;;;;;;;;;;20.52;45.32;101360.09;2112313;28;2180;-33
2021/04/03 00:37:51;;;;;;;;;;;;;;;20.53;45.27;101364.59;2109295;28;2418;-33
2021/04/03 00:38:52;;;;;;;;;;;;;;;20.53;45.31;101365.44;2112082;27;1741;-35
2021/04/03 00:39:53;;;;;;;;;;;;;;;20.53;45.15;101370.28;2111507;28;2158;-32
2021/04/03 00:40:53;;;;;;;;;;;;;;;20.53;45.22;101367.44;2113169;27;2200;-33
2021/04/03 00:41:56;;;;;;;;;;;;;;;20.54;45.12;101369.13;2118413;27;1888;-33
2021/04/03 00:42:57;;;;;;;;;;;;;;;20.52;45.17;101369.44;2104272;28;2326;-32
2021/04/03 00:43:57;;;;;;;;;;;;;;;20.53;45.11;101367.44;2110145;28;1825;-32
2021/04/03 00:44:58;;;;;;;;;;;;;;;20.53;45.19;101364.59;2101691;28;2281;-34
2021/04/03 00:45:59;;;;;;;;;;;;;;;20.53;45.11;101370.28;2101979;28;3649;-34
2021/04/03 00:47:00;;;;;;;;;;;;;;;20.53;45.11;101373.13;2108317;28;1392;-34
2021/04/03 00:48:01;;;;;;;;;;;;;;;20.52;45.11;101368.63;2106513;28;1873;-31
2021/04/03 00:49:02;;;;;;;;;;;;;;;20.52;45.23;101365.78;2107028;28;1180;-33
2021/04/03 00:50:03;;;;;;;;;;;;;;;20.53;45.12;101378.81;2106844;28;2135;-35
2021/04/03 00:51:04;;;;;;;;;;;;;;;20.53;45.04;101367.44;2107940;28;2047;-33
2021/04/03 00:52:05;;;;;;;;;;;;;;;20.52;45.04;101360.91;2114175;28;1569;-34
2021/04/03 00:53:11;;;;;;;;;;;;;;;20.52;45.08;101369.44;2101394;28;2019;-34
2021/04/03 00:54:12;;;;;;;;;;;;;;;20.53;45.11;101368.28;2107492;28;1990;-35
2021/04/03 00:55:13;;;;;;;;;;;;;;;20.53;44.99;101368.28;2104684;28;2106;-33
2021/04/03 00:56:14;;;;;;;;;;;;;;;20.53;45.17;101356.06;2105213;28;1925;-33
2021/04/03 00:57:14;;;;;;;;;;;;;;;20.51;45.06;101358.41;2104027;28;2225;-33
2021/04/03 00:58:15;;;;;;;;;;;;;;;20.53;45.05;101371.13;2105748;28;2121;-32
2021/04/03 00:59:16;;;;;;;;;;;;;;;20.53;45.04;101361.75;2105696;28;2235;-33
2021/04/03 01:00:17;;;;;;;;;;;;;;;20.54;45.18;101370.00;2105249;28;2539;-34
2021/04/03 01:01:17;;;;;;;;;;;;;;;20.54;45.15;101369.13;2102231;28;2075;-32
2021/04/03 01:02:18;;;;;;;;;;;;;;;20.54;45.10;101371.97;2106179;28;2151;-32
2021/04/03 01:03:19;;;;;;;;;;;;;;;20.54;45.14;101369.13;2109856;28;1647;-34
2021/04/03 01:04:19;;;;;;;;;;;;;;;20.54;45.09;101363.44;2108871;28;1955;-32
2021/04/03 01:05:20;;;;;;;;;;;;;;;20.54;45.02;101369.13;2104294;28;2128;-31
2021/04/03 01:06:21;;;;;;;;;;;;;;;20.53;45.04;101362.63;2110503;28;1713;-35
2021/04/03 01:07:22;;;;;;;;;;;;;;;20.53;44.96;101373.97;2110618;28;2293;-32
2021/04/03 01:08:23;;;;;;;;;;;;;;;20.54;45.03;101366.28;2112695;28;1551;-34
2021/04/03 01:09:23;;;;;;;;;;;;;;;20.53;45.15;101365.44;2102144;28;3920;-33
2021/04/03 01:10:24;;;;;;;;;;;;;;;20.54;45.00;101369.13;2103280;28;2485;-34
2021/04/03 01:11:25;;;;;;;;;;;;;;;20.54;44.99;101375.66;2105467;28;2200;-34
2021/04/03 01:12:26;;;;;;;;;;;;;;;20.54;45.03;101364.31;2112194;28;2128;-32
2021/04/03 01:13:26;;;;;;;;;;;;;;;20.55;45.04;101365.13;2113164;28;1121;-36
2021/04/03 01:14:29;;;;;;;;;;;;;;;20.55;45.02;101368.81;2112882;28;1546;-35
2021/04/03 01:15:29;;;;;;;;;;;;;;;20.55;45.15;101365.97;2105905;28;2119;-34
2021/04/03 01:16:31;;;;;;;;;;;;;;;20.56;45.19;101366.78;2104543;28;2175;-34
2021/04/03 01:17:32;;;;;;;;;;;;;;;20.55;45.17;101365.13;2112727;28;1583;-32
2021/04/03 01:18:33;;;;;;;;;;;;;;;20.56;45.20;101366.78;2108685;28;2269;-33
2021/04/03 01:19:33;;;;;;;;;;;;;;;20.57;45.18;101371.31;2108493;28;1788;-36
2021/04/03 01:20:34;;;;;;;;;;;;;;;20.56;45.13;101373.31;2109720;28;2023;-33
2021/04/03 01:21:35;;;;;;;;;;;;;;;20.57;45.41;101374.16;2113380;28;1235;-33
2021/04/03 01:22:36;;;;;;;;;;;;;;;20.57;45.41;101377.00;2103586;28;2200;-35
2021/04/03 01:23:36;;;;;;;;;;;;;;;20.57;45.27;101374.16;2100426;28;2002;-35
2021/04/03 01:24:37;;;;;;;;;;;;;;;20.57;45.42;101368.47;2105555;28;2186;-32
2021/04/03 01:25:38;;;;;;;;;;;;;;;20.57;45.39;101374.16;2104051;28;2163;-36
2021/04/03 01:26:39;;;;;;;;;;;;;;;20.57;45.53;101371.31;2103081;28;2020;-35
2021/04/03 01:27:39;;;;;;;;;;;;;;;20.57;45.48;101374.16;2106250;28;2134;-31
2021/04/03 01:28:40;;;;;;;;;;;;;;;20.57;45.54;101374.16;2104914;27;1919;-33
2021/04/03 01:29:41;;;;;;;;;;;;;;;20.58;45.49;101376.66;2112591;28;1263;-32
2021/04/03 01:30:42;;;;;;;;;;;;;;;20.58;45.52;101373.81;2110292;27;2162;-33
2021/04/03 01:31:43;;;;;;;;;;;;;;;20.59;45.56;101384.03;2110129;27;2086;-33
2021/04/03 01:32:44;;;;;;;;;;;;;;;20.59;45.64;101380.31;2105827;28;2011;-34
2021/04/03 01:33:45;;;;;;;;;;;;;;;20.60;45.76;101382.03;2108183;28;2277;-34
2021/04/03 01:34:46;;;;;;;;;;;;;;;20.59;45.58;101386.88;2111195;28;1683;-34
2021/04/03 01:35:49;;;;;;;;;;;;;;;20.59;45.52;101380.31;2098151;28;2378;-32
2021/04/03 01:36:49;;;;;;;;;;;;;;;20.59;45.64;101374.63;2103512;28;2484;-31
2021/04/03 01:37:50;;;;;;;;;;;;;;;20.59;45.64;101380.31;2106572;28;2071;-35
2021/04/03 01:38:51;;;;;;;;;;;;;;;20.60;45.54;101374.31;2113157;28;1313;-32
2021/04/03 01:39:52;;;;;;;;;;;;;;;20.60;45.72;101384.84;2106276;28;2068;-33
2021/04/03 01:40:52;;;;;;;;;;;;;;;20.59;45.69;101384.03;2100870;28;2171;-32
2021/04/03 01:41:53;;;;;;;;;;;;;;;20.61;45.79;101389.38;2108957;28;1070;-33
2021/04/03 01:42:54;;;;;;;;;;;;;;;20.61;45.81;101392.22;2103224;28;2091;-33
2021/04/03 01:43:55;;;;;;;;;;;;;;;20.60;45.68;101384.84;2108181;28;1827;-32
2021/04/03 01:44:55;;;;;;;;;;;;;;;20.61;45.85;101389.38;2105915;28;2042;-32
2021/04/03 01:45:56;;;;;;;;;;;;;;;20.61;45.88;101380.84;2106201;28;3524;-32
2021/04/03 01:46:57;;;;;;;;;;;;;;;20.61;45.90;101386.53;2103655;28;1976;-34
2021/04/03 01:47:58;;;;;;;;;;;;;;;20.61;45.82;101383.69;2104446;28;1940;-33
2021/04/03 01:48:58;;;;;;;;;;;;;;;20.61;45.79;101386.53;2111632;28;1760;-32
2021/04/03 01:49:59;;;;;;;;;;;;;;;20.61;45.87;101390.19;2105459;28;2347;-34
2021/04/03 01:51:00;;;;;;;;;;;;;;;20.61;45.95;101395.03;2101440;28;2119;-34
2021/04/03 01:52:01;;;;;;;;;;;;;;;20.61;45.82;101390.19;2112570;28;1794;-32
2021/04/03 01:53:02;;;;;;;;;;;;;;;20.63;45.84;101401.25;2102601;28;2343;-34
2021/04/03 01:54:03;;;;;;;;;;;;;;;20.62;45.94;101400.41;2104506;28;2101;-35
2021/04/03 01:55:03;;;;;;;;;;;;;;;20.62;46.00;101400.41;2108459;28;1425;-32
2021/04/03 01:56:04;;;;;;;;;;;;;;;20.62;45.85;101403.25;2099045;28;2233;-32
2021/04/03 01:57:05;;;;;;;;;;;;;;;20.62;46.04;101400.41;2100054;28;2452;-32
2021/04/03 01:58:05;;;;;;;;;;;;;;;20.62;46.02;101396.72;2100099;28;2190;-31
2021/04/03 01:59:06;;;;;;;;;;;;;;;20.63;46.04;101407.75;2107568;28;1513;-32
2021/04/03 02:00:07;;;;;;;;;;;;;;;20.62;45.95;101406.09;2107713;28;2276;-32
2021/04/03 02:01:08;;;;;;;;;;;;;;;20.63;45.97;101409.78;2104867;28;2494;-32
2021/04/03 02:02:08;;;;;;;;;;;;;;;20.63;45.97;101407.75;2106496;28;1953;-33
2021/04/03 02:03:09;;;;;;;;;;;;;;;20.63;45.97;101412.63;2114160;28;1989;-32
2021/04/03 02:04:10;;;;;;;;;;;;;;;20.63;46.09;101398.41;2107775;28;1643;-32
2021/04/03 02:05:11;;;;;;;;;;;;;;;20.62;46.09;101402.41;2099862;28;2082;-33
2021/04/03 02:06:11;;;;;;;;;;;;;;;20.63;46.16;101406.94;2104201;28;3195;-33
2021/04/03 02:07:12;;;;;;;;;;;;;;;20.64;46.06;101408.59;2112707;28;1538;-34
2021/04/03 02:08:13;;;;;;;;;;;;;;;20.64;46.24;101408.59;2113315;28;2071;-33
2021/04/03 02:09:14;;;;;;;;;;;;;;;20.65;46.22;101410.28;2103740;28;3793;-32
2021/04/03 02:10:14;;;;;;;;;;;;;;;20.65;46.21;101405.41;2106379;28;2120;-32
2021/04/03 02:11:15;;;;;;;;;;;;;;;20.65;46.24;101410.28;2109381;28;1129;-35
2021/04/03 02:12:16;;;;;;;;;;;;;;;20.67;46.24;101413.59;2108727;28;1971;-32
2021/04/03 02:13:16;;;;;;;;;;;;;;;20.66;46.34;101414.78;2105040;28;2214;-34
2021/04/03 02:14:17;;;;;;;;;;;;;;;20.66;46.30;101411.94;2112073;28;1328;-32
2021/04/03 02:15:18;;;;;;;;;;;;;;;20.66;46.26;101406.25;2107789;28;2004;-32
2021/04/03 02:16:19;;;;;;;;;;;;;;;20.65;46.30;101410.28;2107680;28;2101;-31
2021/04/03 02:17:19;;;;;;;;;;;;;;;20.65;46.23;101415.97;2113815;28;1557;-34
2021/04/03 02:18:20;;;;;;;;;;;;;;;20.65;46.39;101416.78;2104878;28;1967;-32
2021/04/03 02:19:21;;;;;;;;;;;;;;;20.66;46.33;101420.47;2106861;28;1741;-32
2021/04/03 02:20:22;;;;;;;;;;;;;;;20.67;46.29;101419.28;2103935;28;2188;-33
2021/04/03 02:21:23;;;;;;;;;;;;;;;20.66;46.29;101420.47;2098459;28;2253;-34
2021/04/03 02:22:24;;;;;;;;;;;;;;;20.66;46.36;101421.28;2100638;28;2143;-35
2021/04/03 02:23:25;;;;;;;;;;;;;;;20.67;46.63;101419.28;2101680;28;2693;-32
2021/04/03 02:24:26;;;;;;;;;;;;;;;20.66;46.58;101420.47;2102596;28;2304;-32
2021/04/03 02:25:27;;;;;;;;;;;;;;;20.67;46.64;101422.13;2103445;28;1963;-32
2021/04/03 02:26:28;;;;;;;;;;;;;;;20.67;46.47;101419.28;2101605;28;2131;-37
2021/04/03 02:27:29;;;;;;;;;;;;;;;20.66;46.38;101418.44;2100063;28;2149;-32
2021/04/03 02:28:30;;;;;;;;;;;;;;;20.67;46.60;101416.44;2104809;28;2340;-33
2021/04/03 02:29:31;;;;;;;;;;;;;;;20.66;46.36;101417.63;2106528;28;1389;-33
2021/04/03 02:30:32;;;;;;;;;;;;;;;20.66;46.42;101423.31;2098583;28;2199;-32
2021/04/03 02:31:32;;;;;;;;;;;;;;;20.65;46.56;101421.66;2104177;28;2139;-35
2021/04/03 02:32:33;;;;;;;;;;;;;;;20.65;46.40;101418.81;2105386;28;1984;-39
2021/04/03 02:33:34;;;;;;;;;;;;;;;20.66;46.40;101429.00;2106161;28;2115;-34
2021/04/03 02:34:35;;;;;;;;;;;;;;;20.66;46.43;101423.31;2107638;28;2105;-35
2021/04/03 02:35:56;;;;;;;;;;;;;;;20.66;46.50;101424.13;2108025;28;1897;-36
2021/04/03 02:36:56;;;;;;;;;;;;;;;20.66;46.41;101426.97;2106750;28;2381;-35
2021/04/03 02:37:57;;;;;;;;;;;;;;;20.66;46.37;101426.16;2104604;28;2000;-33
2021/04/03 02:38:58;;;;;;;;;;;;;;;20.65;46.48;101433.84;2106241;28;2262;-34
2021/04/03 02:39:59;;;;;;;;;;;;;;;20.65;46.40;101433.84;2108836;28;2176;-34
2021/04/03 02:41:00;;;;;;;;;;;;;;;20.65;46.60;101438.72;2109257;28;2281;-34
2021/04/03 02:42:01;;;;;;;;;;;;;;;20.65;46.40;101435.88;2111461;28;2108;-35
2021/04/03 02:43:02;;;;;;;;;;;;;;;20.65;46.58;101435.88;2106991;28;2687;-34
2021/04/03 02:44:03;;;;;;;;;;;;;;;20.66;46.46;101437.53;2109530;28;2198;-34
2021/04/03 02:45:04;;;;;;;;;;;;;;;20.65;46.35;101438.72;2107492;28;1987;-32
2021/04/03 02:46:04;;;;;;;;;;;;;;;20.65;46.49;101433.03;2103512;28;3842;-32
2021/04/03 02:47:05;;;;;;;;;;;;;;;20.65;46.36;101433.03;2103394;28;2483;-34
2021/04/03 02:48:06;;;;;;;;;;;;;;;20.65;46.43;101439.53;2113221;28;1540;-34
2021/04/03 02:49:07;;;;;;;;;;;;;;;20.65;46.40;101435.88;2109354;28;1229;-35
2021/04/03 02:50:07;;;;;;;;;;;;;;;20.65;46.35;101438.72;2108217;28;2250;-33
2021/04/03 02:51:08;;;;;;;;;;;;;;;20.65;46.50;101441.56;2114937;28;1242;-33
2021/04/03 02:52:09;;;;;;;;;;;;;;;20.65;46.47;101438.72;2106368;28;2091;-35
2021/04/03 02:53:10;;;;;;;;;;;;;;;20.65;46.33;101441.56;2115545;28;2408;-33
2021/04/03 02:54:10;;;;;;;;;;;;;;;20.66;46.53;101440.38;2103145;28;1732;-39
2021/04/03 02:55:11;;;;;;;;;;;;;;;20.66;46.50;101438.34;2112053;28;2403;-35
2021/04/03 02:56:12;;;;;;;;;;;;;;;20.65;46.42;101441.56;2107551;28;2065;-33
2021/04/03 02:57:13;;;;;;;;;;;;;;;20.65;46.40;101448.06;2102548;28;2102;-36
2021/04/03 02:58:13;;;;;;;;;;;;;;;20.66;46.53;101446.06;2107115;28;2128;-33
2021/04/03 02:59:14;;;;;;;;;;;;;;;20.65;46.39;101445.22;2102762;28;1934;-32
2021/04/03 03:00:15;;;;;;;;;;;;;;;20.65;46.70;101450.91;2107096;28;2015;-33
2021/04/03 03:01:16;;;;;;;;;;;;;;;20.66;46.42;101457.44;2104734;28;2027;-32
2021/04/03 03:02:17;;;;;;;;;;;;;;;20.66;46.48;101452.56;2101476;28;2319;-34
2021/04/03 03:03:17;;;;;;;;;;;;;;;20.67;46.49;101459.09;2103251;28;2458;-33
2021/04/03 03:04:18;;;;;;;;;;;;;;;20.66;46.40;101457.44;2109638;28;1359;-33
2021/04/03 03:05:19;;;;;;;;;;;;;;;20.66;46.42;101454.59;2109104;28;1947;-35
2021/04/03 03:06:20;;;;;;;;;;;;;;;20.66;46.52;101455.41;2102806;28;2148;-35
2021/04/03 03:07:21;;;;;;;;;;;;;;;20.67;46.41;101456.25;2101688;28;2199;-32
2021/04/03 03:08:22;;;;;;;;;;;;;;;20.66;46.49;101457.44;2106457;28;1900;-34
2021/04/03 03:09:23;;;;;;;;;;;;;;;20.67;46.54;101453.41;2101077;28;3695;-32
2021/04/03 03:10:24;;;;;;;;;;;;;;;20.67;46.49;101459.09;2108422;28;1179;-32
2021/04/03 03:11:25;;;;;;;;;;;;;;;20.66;46.48;101460.28;2113259;28;2121;-33
2021/04/03 03:12:25;;;;;;;;;;;;;;;20.66;46.57;101463.94;2108531;28;2268;-31
2021/04/03 03:13:26;;;;;;;;;;;;;;;20.66;46.55;101463.13;2107250;28;1944;-34
2021/04/03 03:14:28;;;;;;;;;;;;;;;20.66;46.62;101463.94;2113500;28;1686;-32
2021/04/03 03:15:29;;;;;;;;;;;;;;;20.66;46.42;101457.44;2115480;28;1375;-36
2021/04/03 03:16:30;;;;;;;;;;;;;;;20.66;46.49;101463.13;2106117;28;2134;-35
2021/04/03 03:17:30;;;;;;;;;;;;;;;20.66;46.52;101463.13;2109277;28;1557;-32
2021/04/03 03:18:31;;;;;;;;;;;;;;;20.65;46.58;101455.78;2106268;28;1933;-33
2021/04/03 03:19:32;;;;;;;;;;;;;;;20.67;46.56;101467.63;2103701;28;1907;-37
2021/04/03 03:20:33;;;;;;;;;;;;;;;20.66;46.54;101457.44;2110484;28;1389;-32
2021/04/03 03:21:34;;;;;;;;;;;;;;;20.65;46.49;101455.78;2113405;28;2104;-42
2021/04/03 03:22:34;;;;;;;;;;;;;;;20.65;46.52;101461.44;2105937;28;2202;-32
2021/04/03 03:23:35;;;;;;;;;;;;;;;20.66;46.49;101474.50;2113866;28;2424;-33
2021/04/03 03:24:36;;;;;;;;;;;;;;;20.65;46.43;101462.28;2106795;28;2080;-33
2021/04/03 03:25:36;;;;;;;;;;;;;;;20.65;46.61;101467.13;2108214;28;2254;-34
2021/04/03 03:26:37;;;;;;;;;;;;;;;20.66;46.57;101463.13;2111022;28;2298;-33
2021/04/03 03:27:38;;;;;;;;;;;;;;;20.65;46.62;101461.44;2106984;28;2032;-32
2021/04/03 03:28:39;;;;;;;;;;;;;;;20.65;46.57;101464.28;2107866;28;1611;-33
2021/04/03 03:29:39;;;;;;;;;;;;;;;20.65;46.68;101461.44;2110714;28;2002;-35
2021/04/03 03:30:40;;;;;;;;;;;;;;;20.65;46.64;101461.44;2106310;28;1275;-32
2021/04/03 03:31:41;;;;;;;;;;;;;;;20.64;46.55;101469.13;2106985;28;2428;-40
2021/04/03 03:32:42;;;;;;;;;;;;;;;20.64;46.65;101460.59;2099901;28;2204;-34
2021/04/03 03:33:42;;;;;;;;;;;;;;;20.65;46.64;101461.44;2107533;28;2316;-33
2021/04/03 03:34:43;;;;;;;;;;;;;;;20.64;46.50;101465.44;2100090;28;2421;-37
2021/04/03 03:35:44;;;;;;;;;;;;;;;20.65;46.55;101469.97;2099613;28;2246;-34
2021/04/03 03:36:45;;;;;;;;;;;;;;;20.65;46.67;101472.81;2103883;28;2600;-38
2021/04/03 03:37:46;;;;;;;;;;;;;;;20.64;46.58;101473.97;2116068;28;2082;-35
2021/04/03 03:38:47;;;;;;;;;;;;;;;20.65;46.50;101475.66;2109030;28;2014;-33
2021/04/03 03:39:51;;;;;;;;;;;;;;;20.64;46.61;101477.66;2111165;28;2026;-31
2021/04/03 03:40:54;;;;;;;;;;;;;;;20.64;46.50;101473.97;2107336;28;2170;-32
2021/04/03 03:41:55;;;;;;;;;;;;;;;20.64;46.50;101477.66;2107950;28;2312;-32
2021/04/03 03:42:55;;;;;;;;;;;;;;;20.65;46.49;101472.81;2112591;28;2061;-40
2021/04/03 03:43:56;;;;;;;;;;;;;;;20.65;46.63;101478.50;2111818;28;2027;-33
2021/04/03 03:44:57;;;;;;;;;;;;;;;20.65;46.51;101478.50;2101661;28;2010;-32
2021/04/03 03:45:58;;;;;;;;;;;;;;;20.64;46.60;101477.66;2108485;28;3959;-33
2021/04/03 03:46:58;;;;;;;;;;;;;;;20.64;46.57;101480.50;2105241;28;2083;-35
2021/04/03 03:48:02;;;;;;;;;;;;;;;20.64;46.47;101482.50;2104377;28;2219;-35
2021/04/03 03:49:03;;;;;;;;;;;;;;;20.63;46.61;101481.69;2108647;28;1532;-33
2021/04/03 03:50:04;;;;;;;;;;;;;;;20.63;46.47;101478.84;2106551;28;2135;-36
2021/04/03 03:51:05;;;;;;;;;;;;;;;20.63;46.47;101476.00;2113886;28;1468;-37
2021/04/03 03:52:06;;;;;;;;;;;;;;;20.64;46.50;101482.50;2106819;28;2427;-32
2021/04/03 03:53:07;;;;;;;;;;;;;;;20.65;46.51;101475.66;2105523;28;1213;-32
2021/04/03 03:54:08;;;;;;;;;;;;;;;20.65;46.60;101484.19;2105271;28;2198;-32
2021/04/03 03:55:08;;;;;;;;;;;;;;;20.65;46.54;101489.88;2110250;28;1911;-32
2021/04/03 03:56:09;;;;;;;;;;;;;;;20.65;46.59;101472.81;2105263;28;1224;-34
2021/04/03 03:57:10;;;;;;;;;;;;;;;20.64;46.50;101477.66;2103889;28;2129;-34
2021/04/03 03:58:11;;;;;;;;;;;;;;;20.64;46.50;101482.50;2111579;28;2081;-36
2021/04/03 03:59:11;;;;;;;;;;;;;;;20.64;46.58;101480.50;2106789;28;2008;-35
2021/04/03 04:00:12;;;;;;;;;;;;;;;20.65;46.53;101487.03;2102026;28;2351;-33
2021/04/03 04:01:13;;;;;;;;;;;;;;;20.65;46.45;101484.19;2106550;28;2442;-37
2021/04/03 04:02:14;;;;;;;;;;;;;;;20.64;46.57;101483.34;2102801;28;2166;-34
2021/04/03 04:03:15;;;;;;;;;;;;;;;20.64;46.38;101485.34;2108343;28;1964;-32
2021/04/03 04:04:16;;;;;;;;;;;;;;;20.65;46.60;101482.19;2107814;28;1978;-30
2021/04/03 04:05:16;;;;;;;;;;;;;;;20.65;46.47;101484.19;2101844;28;1967;-33
2021/04/03 04:06:17;;;;;;;;;;;;;;;20.65;46.43;101479.34;2104058;28;2117;-32
2021/04/03 04:07:18;;;;;;;;;;;;;;;20.64;46.50;101477.66;2101026;28;2283;-31
2021/04/03 04:08:20;;;;;;;;;;;;;;;20.65;46.49;101484.19;2104545;28;1429;-31
2021/04/03 04:09:20;;;;;;;;;;;;;;;20.64;46.48;101477.66;2104167;28;3921;-35
2021/04/03 04:10:22;;;;;;;;;;;;;;;20.64;46.78;101477.66;2101655;28;2190;-32
2021/04/03 04:11:22;;;;;;;;;;;;;;;20.64;46.56;101482.50;2104578;28;1990;-31
2021/04/03 04:12:24;;;;;;;;;;;;;;;20.64;46.45;101483.34;2102447;28;2248;-32
2021/04/03 04:13:24;;;;;;;;;;;;;;;20.64;46.63;101480.50;2104776;28;1437;-32
2021/04/03 04:14:25;;;;;;;;;;;;;;;20.65;46.52;101484.19;2103554;28;2235;-35
2021/04/03 04:15:26;;;;;;;;;;;;;;;20.65;46.47;101484.19;2112414;28;1575;-33
2021/04/03 04:16:26;;;;;;;;;;;;;;;20.64;46.46;101483.34;2108612;28;2438;-30
2021/04/03 04:17:27;;;;;;;;;;;;;;;20.64;46.58;101482.50;2107415;28;1991;-34
2021/04/03 04:18:28;;;;;;;;;;;;;;;20.65;46.64;101478.50;2109599;27;1953;-34
2021/04/03 04:19:29;;;;;;;;;;;;;;;20.65;46.49;101481.34;2111478;28;1199;-32
2021/04/03 04:20:29;;;;;;;;;;;;;;;20.64;46.46;101483.34;2104302;28;1984;-38
2021/04/03 04:21:30;;;;;;;;;;;;;;;20.64;46.47;101476.81;2101133;28;2312;-32
2021/04/03 04:22:31;;;;;;;;;;;;;;;20.63;46.55;101475.16;2112254;28;1553;-34
2021/04/03 04:23:32;;;;;;;;;;;;;;;20.64;46.52;101473.97;2107211;28;1974;-32
2021/04/03 04:24:34;;;;;;;;;;;;;;;20.64;46.57;101483.34;2108997;28;1959;-34
2021/04/03 04:25:34;;;;;;;;;;;;;;;20.65;46.44;101487.03;2112313;28;1265;-31
2021/04/03 04:26:35;;;;;;;;;;;;;;;20.64;46.46;101488.19;2107144;28;1938;-31
2021/04/03 04:27:36;;;;;;;;;;;;;;;20.65;46.48;101485.03;2101834;28;2128;-32
2021/04/03 04:28:37;;;;;;;;;;;;;;;20.65;46.56;101489.88;2097377;28;1837;-32
2021/04/03 04:29:37;;;;;;;;;;;;;;;20.65;46.43;101489.88;2098062;28;1926;-33
2021/04/03 04:30:38;;;;;;;;;;;;;;;20.65;46.59;101484.19;2093709;28;2335;-37
2021/04/03 04:31:39;;;;;;;;;;;;;;;20.64;46.66;101485.34;2092600;28;2295;-36
2021/04/03 04:32:40;;;;;;;;;;;;;;;20.65;46.49;101498.41;2097688;28;2773;-32
2021/04/03 04:33:40;;;;;;;;;;;;;;;20.65;46.61;101504.09;2100744;28;1944;-34
2021/04/03 04:34:41;;;;;;;;;;;;;;;20.63;46.62;101500.75;2098134;28;2373;-32
2021/04/03 04:35:42;;;;;;;;;;;;;;;20.65;46.46;101507.78;2096786;28;2082;-33
2021/04/03 04:36:43;;;;;;;;;;;;;;;20.64;46.62;101511.78;2097802;28;2264;-31
2021/04/03 04:37:44;;;;;;;;;;;;;;;20.64;46.60;101510.94;2092923;28;2067;-37
2021/04/03 04:38:45;;;;;;;;;;;;;;;20.64;46.70;101506.09;2096878;28;2567;-34
2021/04/03 04:39:45;;;;;;;;;;;;;;;20.65;46.55;101515.47;2102435;28;1307;-39
2021/04/03 04:40:46;;;;;;;;;;;;;;;20.64;46.67;101513.78;2093811;28;1895;-33
2021/04/03 04:41:47;;;;;;;;;;;;;;;20.64;46.61;101510.94;2096612;28;2622;-33
2021/04/03 04:42:50;;;;;;;;;;;;;;;20.64;46.61;101513.78;2095945;28;2020;-31
2021/04/03 04:43:51;;;;;;;;;;;;;;;20.63;46.68;101512.94;2094094;28;1906;-33
2021/04/03 04:44:51;;;;;;;;;;;;;;;20.63;46.60;101518.63;2097031;28;2033;-33
2021/04/03 04:45:52;;;;;;;;;;;;;;;20.64;46.75;101522.31;2095204;28;3970;-32
2021/04/03 04:46:53;;;;;;;;;;;;;;;20.63;46.61;101512.94;2095856;28;2619;-31
2021/04/03 04:47:54;;;;;;;;;;;;;;;20.64;46.70;101516.63;2097308;28;1323;-33
2021/04/03 04:48:54;;;;;;;;;;;;;;;20.63;46.70;101515.78;2094126;28;2033;-32
2021/04/03 04:49:55;;;;;;;;;;;;;;;20.64;46.76;101525.97;2095646;28;2074;-34
2021/04/03 04:50:56;;;;;;;;;;;;;;;20.64;46.73;101513.78;2102449;28;1411;-30
2021/04/03 04:51:57;;;;;;;;;;;;;;;20.63;46.69;101518.63;2092065;28;2250;-30
2021/04/03 04:52:57;;;;;;;;;;;;;;;20.64;46.71;101523.13;2091109;28;1300;-34
2021/04/03 04:53:58;;;;;;;;;;;;;;;20.64;46.73;101520.31;2092424;28;2013;-33
2021/04/03 04:54:59;;;;;;;;;;;;;;;20.65;46.84;101526.84;2095343;28;1620;-33
2021/04/03 04:56:00;;;;;;;;;;;;;;;20.65;46.68;101526.84;2089262;28;2180;-31
2021/04/03 04:57:01;;;;;;;;;;;;;;;20.65;46.65;101521.16;2098149;28;2239;-32
2021/04/03 04:58:02;;;;;;;;;;;;;;;20.64;46.74;101522.31;2094754;28;2255;-32
2021/04/03 04:59:02;;;;;;;;;;;;;;;20.65;46.87;101526.84;2093413;28;2418;-31
2021/04/03 05:00:03;;;;;;;;;;;;;;;20.65;46.71;101524.00;2093891;28;1868;-33
2021/04/03 05:01:04;;;;;;;;;;;;;;;20.65;46.88;101526.84;2095533;28;2041;-33
2021/04/03 05:02:05;;;;;;;;;;;;;;;20.65;46.72;101522.00;2094827;28;2180;-31
2021/04/03 05:03:06;;;;;;;;;;;;;;;20.66;46.67;101528.50;2095099;28;2437;-31
2021/04/03 05:04:06;;;;;;;;;;;;;;;20.65;46.81;101522.00;2103413;28;2061;-32
2021/04/03 05:05:07;;;;;;;;;;;;;;;20.64;46.86;101517.47;2092314;28;1936;-33
2021/04/03 05:06:08;;;;;;;;;;;;;;;20.64;46.82;101525.97;2094085;28;2285;-31
2021/04/03 05:07:08;;;;;;;;;;;;;;;20.64;46.79;101528.84;2089743;28;2163;-31
2021/04/03 05:08:09;;;;;;;;;;;;;;;20.65;46.86;101522.00;2093003;28;2240;-30
2021/04/03 05:09:10;;;;;;;;;;;;;;;20.65;46.76;101518.31;2092928;28;3794;-31
2021/04/03 05:10:11;;;;;;;;;;;;;;;20.66;46.78;101525.66;2093225;28;2260;-34
2021/04/03 05:11:11;;;;;;;;;;;;;;;20.64;46.87;101520.31;2092998;28;2181;-31
2021/04/03 05:12:12;;;;;;;;;;;;;;;20.65;46.84;101527.69;2098609;28;2137;-31
2021/04/03 05:13:13;;;;;;;;;;;;;;;20.65;46.89;101529.69;2101730;28;2110;-33
2021/04/03 05:14:14;;;;;;;;;;;;;;;20.65;46.83;101535.38;2093630;28;1920;-31
2021/04/03 05:15:15;;;;;;;;;;;;;;;20.65;46.99;101533.38;2094718;28;2125;-31
2021/04/03 05:16:15;;;;;;;;;;;;;;;20.64;46.78;101540.19;2095911;28;1849;-34
2021/04/03 05:17:16;;;;;;;;;;;;;;;20.65;46.83;101543.91;2094343;28;2064;-33